Time;durP1;ratioP1;P1;durP2;ratioP2;P2;SDS_P1;SDS_P2;PMS_P1;PMS_P2;Temp;Humidity;BMP_temperature;BMP_pressure;BME280_temperature;BME280_humidity;BME280_pressure;Samples;Min_cycle;Max_cycle;Signal;HPM_P1;HPM_P2
2023/07/12 00:01:04;;;;;;;8.40;4.15;;;20.40;99.90;;;;;;7389367;19;20478;-70
2023/07/12 00:03:35;;;;;;;11.05;4.10;;;20.40;99.90;;;;;;7390333;19;20018;-69
2023/07/12 00:06:13;;;;;;;6.38;3.70;;;20.20;99.90;;;;;;7395108;19;20018;-69
2023/07/12 00:08:43;;;;;;;9.75;4.28;;;20.30;99.90;;;;;;7390288;19;20011;-69
2023/07/12 00:11:18;;;;;;;6.60;4.28;;;20.30;99.90;;;;;;7388709;19;20014;-68
2023/07/12 00:13:48;;;;;;;7.47;4.30;;;20.30;99.90;;;;;;7389567;19;20019;-69
2023/07/12 00:16:23;;;;;;;4.82;3.40;;;20.30;99.90;;;;;;7389521;19;20050;-68
2023/07/12 00:18:54;;;;;;;5.80;3.55;;;20.30;95.50;;;;;;7389980;19;20391;-68
2023/07/12 00:21:30;;;;;;;5.30;3.63;;;20.30;90.20;;;;;;7388215;19;20018;-68
2023/07/12 00:24:01;;;;;;;6.43;3.28;;;20.30;83.40;;;;;;7389680;19;20061;-69
2023/07/12 00:26:34;;;;;;;4.18;3.00;;;20.40;85.70;;;;;;7389910;19;20082;-69
2023/07/12 00:29:06;;;;;;;6.35;3.22;;;20.40;67.00;;;;;;7389485;19;20028;-69
2023/07/12 00:31:37;;;;;;;4.18;2.58;;;20.40;65.30;;;;;;7388185;19;20031;-68
2023/07/12 00:34:07;;;;;;;5.05;3.28;;;20.40;65.90;;;;;;7389481;19;20022;-68
2023/07/12 00:36:40;;;;;;;3.60;2.80;;;20.30;70.90;;;;;;7389770;19;20017;-69
2023/07/12 00:39:11;;;;;;;5.88;2.72;;;20.30;68.40;;;;;;7389655;19;20092;-68
2023/07/12 00:42:03;;;;;;;3.70;2.78;;;20.20;76.30;;;;;;7387541;19;20014;-69
2023/07/12 00:44:37;;;;;;;4.32;2.72;;;20.30;78.60;;;;;;7388921;19;20087;-69
2023/07/12 00:47:07;;;;;;;5.28;2.65;;;20.30;68.90;;;;;;7393388;19;20042;-69
2023/07/12 00:49:37;;;;;;;5.38;2.80;;;20.20;66.40;;;;;;7388753;19;20036;-69
2023/07/12 00:52:14;;;;;;;4.03;2.42;;;20.40;75.40;;;;;;7388965;19;20483;-68
2023/07/12 00:54:54;;;;;;;5.72;2.42;;;20.20;59.50;;;;;;7388942;19;20028;-69
2023/07/12 00:57:25;;;;;;;4.70;2.63;;;20.50;57.70;;;;;;7387693;19;20011;-69
2023/07/12 00:59:58;;;;;;;5.15;3.47;;;20.40;50.40;;;;;;7386212;19;20391;-69
2023/07/12 01:02:28;;;;;;;4.63;3.33;;;20.30;52.60;;;;;;7389241;19;20487;-69
2023/07/12 01:05:03;;;;;;;5.53;2.45;;;20.40;52.00;;;;;;7390468;19;20014;-69
2023/07/12 01:07:36;;;;;;;4.15;2.60;;;20.40;45.10;;;;;;7389869;19;20014;-69
2023/07/12 01:10:08;;;;;;;5.75;2.63;;;20.40;46.90;;;;;;7388413;19;20097;-69
2023/07/12 01:12:39;;;;;;;3.63;2.67;;;20.30;50.30;;;;;;7389048;19;20094;-69
2023/07/12 01:15:12;;;;;;;6.00;3.33;;;20.40;50.70;;;;;;7388640;19;20039;-68
2023/07/12 01:17:42;;;;;;;3.38;2.65;;;20.30;48.00;;;;;;7387407;19;20018;-68
2023/07/12 01:20:13;;;;;;;5.38;2.80;;;20.40;47.30;;;;;;7387745;19;20018;-68
2023/07/12 01:22:46;;;;;;;3.25;2.55;;;20.40;37.70;;;;;;7386564;19;20007;-69
2023/07/12 01:25:16;;;;;;;4.60;2.55;;;20.40;38.00;;;;;;7386384;19;20082;-69
2023/07/12 01:27:46;;;;;;;3.30;2.42;;;20.40;40.20;;;;;;7388236;19;20035;-68
2023/07/12 01:30:20;;;;;;;5.38;2.47;;;20.50;38.40;;;;;;7387481;19;20070;-69
2023/07/12 01:32:52;;;;;;;3.70;2.83;;;20.40;33.10;;;;;;7387917;19;20022;-69
2023/07/12 01:35:22;;;;;;;5.15;3.00;;;20.50;34.50;;;;;;7393561;19;20011;-69
2023/07/12 01:37:55;;;;;;;4.82;3.10;;;20.40;36.00;;;;;;7393271;19;20514;-69
2023/07/12 01:40:25;;;;;;;4.97;3.10;;;20.60;36.80;;;;;;7393882;19;20025;-69
2023/07/12 01:42:56;;;;;;;4.45;3.03;;;20.40;36.40;;;;;;7395142;19;20014;-69
2023/07/12 01:45:26;;;;;;;5.72;3.40;;;20.50;33.60;;;;;;7396339;19;20011;-69
2023/07/12 01:47:56;;;;;;;6.32;2.85;;;20.30;38.70;;;;;;7394881;19;20455;-69
2023/07/12 01:50:26;;;;;;;3.80;2.50;;;20.40;41.00;;;;;;7393763;19;20117;-69
2023/07/12 01:52:59;;;;;;;4.70;2.47;;;20.40;43.60;;;;;;7395035;19;20027;-69
2023/07/12 01:55:29;;;;;;;5.65;2.60;;;20.30;42.80;;;;;;7397591;19;20487;-70
2023/07/12 01:57:59;;;;;;;4.60;2.30;;;20.40;34.40;;;;;;7392900;19;20546;-70
2023/07/12 02:00:29;;;;;;;2.60;2.17;;;20.40;35.80;;;;;;7393133;19;20074;-70
2023/07/12 02:02:59;;;;;;;4.55;2.53;;;20.20;36.70;;;;;;7394893;19;20011;-70
2023/07/12 02:05:29;;;;;;;8.90;2.97;;;20.20;38.70;;;;;;7397892;19;20681;-70
2023/07/12 02:08:01;;;;;;;3.90;2.70;;;20.20;38.60;;;;;;7394621;19;20006;-70
2023/07/12 02:10:31;;;;;;;6.28;2.95;;;20.10;47.10;;;;;;7392178;19;20086;-67
2023/07/12 02:13:01;;;;;;;3.22;2.33;;;20.10;47.50;;;;;;7394182;19;20049;-70
2023/07/12 02:15:31;;;;;;;4.97;2.88;;;20.20;43.00;;;;;;7393455;19;20033;-70
2023/07/12 02:18:03;;;;;;;7.35;3.17;;;20.20;41.30;;;;;;7392681;19;20034;-70
2023/07/12 02:20:33;;;;;;;5.82;3.20;;;20.30;35.20;;;;;;7392829;19;20027;-70
2023/07/12 02:23:06;;;;;;;5.10;3.45;;;20.20;37.80;;;;;;7393691;19;20011;-70
2023/07/12 02:25:36;;;;;;;6.78;3.25;;;20.20;41.30;;;;;;7393542;19;20014;-70
2023/07/12 02:28:06;;;;;;;5.32;3.97;;;20.30;44.90;;;;;;7393589;19;20083;-70
2023/07/12 02:30:36;;;;;;;4.78;3.45;;;20.20;39.50;;;;;;7391958;19;20022;-70
2023/07/12 02:33:07;;;;;;;5.03;3.58;;;20.20;36.80;;;;;;7393482;19;20086;-70
2023/07/12 02:35:37;;;;;;;11.65;3.38;;;20.10;37.10;;;;;;7392764;19;20033;-70
2023/07/12 02:38:09;;;;;;;8.57;3.70;;;20.30;38.40;;;;;;7392232;19;20031;-70
2023/07/12 02:40:39;;;;;;;4.68;3.55;;;20.20;36.40;;;;;;7391444;19;20014;-70
2023/07/12 02:43:09;;;;;;;5.72;3.38;;;20.10;39.20;;;;;;7392773;19;20015;-68
2023/07/12 02:45:39;;;;;;;4.30;3.20;;;20.20;37.50;;;;;;7391296;19;20006;-68
2023/07/12 02:48:09;;;;;;;7.97;3.25;;;20.20;34.60;;;;;;7392689;19;20029;-68
2023/07/12 02:50:39;;;;;;;5.45;3.35;;;20.20;32.30;;;;;;7391543;19;20079;-68
2023/07/12 02:53:19;;;;;;;7.60;3.50;;;20.20;35.90;;;;;;7393152;19;20077;-67
2023/07/12 02:55:50;;;;;;;5.22;3.40;;;20.20;35.90;;;;;;7392715;19;20018;-66
2023/07/12 02:58:21;;;;;;;9.32;3.80;;;20.20;33.90;;;;;;7391346;19;20477;-68
2023/07/12 03:00:51;;;;;;;4.75;3.83;;;20.10;38.10;;;;;;7391239;19;20468;-68
2023/07/12 03:03:21;;;;;;;5.32;3.25;;;20.10;41.30;;;;;;7392806;19;20416;-69
2023/07/12 03:05:51;;;;;;;6.15;3.60;;;20.10;39.00;;;;;;7397074;19;20388;-68
2023/07/12 03:08:23;;;;;;;5.57;3.28;;;20.10;40.60;;;;;;7394042;19;20082;-69
2023/07/12 03:10:53;;;;;;;4.63;3.30;;;20.10;36.20;;;;;;7392238;19;20439;-68
2023/07/12 03:13:23;;;;;;;5.82;3.60;;;20.00;38.30;;;;;;7392585;19;20326;-68
2023/07/12 03:15:53;;;;;;;6.20;3.60;;;20.00;42.20;;;;;;7392039;19;20022;-68
2023/07/12 03:18:23;;;;;;;6.10;3.45;;;20.00;42.30;;;;;;7410789;19;20031;-68
2023/07/12 03:20:53;;;;;;;7.43;3.95;;;20.00;40.20;;;;;;7418115;19;20334;-68
2023/07/12 03:23:26;;;;;;;6.47;3.78;;;20.10;40.00;;;;;;7411341;19;20013;-64
2023/07/12 03:25:56;;;;;;;7.30;4.15;;;20.10;37.50;;;;;;7393232;19;20022;-67
2023/07/12 03:28:26;;;;;;;5.45;3.28;;;20.20;37.30;;;;;;7393050;19;20485;-68
2023/07/12 03:31:00;;;;;;;8.07;3.33;;;20.20;34.00;;;;;;7391069;19;20035;-69
2023/07/12 03:33:31;;;;;;;5.40;3.13;;;20.20;33.30;;;;;;7392303;19;20413;-69
2023/07/12 03:36:02;;;;;;;6.63;3.55;;;20.10;33.40;;;;;;7391817;19;20015;-70
2023/07/12 03:38:35;;;;;;;7.97;3.08;;;20.20;32.20;;;;;;7388709;19;20494;-69
2023/07/12 03:41:06;;;;;;;7.10;3.20;;;20.10;31.90;;;;;;7389766;19;20601;-68
2023/07/12 03:43:37;;;;;;;12.60;3.20;;;20.10;33.30;;;;;;7391087;19;20006;-68
2023/07/12 03:46:07;;;;;;;5.35;3.00;;;20.20;28.80;;;;;;7393626;19;20010;-68
2023/07/12 03:48:37;;;;;;;4.88;2.63;;;20.20;25.80;;;;;;7390812;19;20014;-68
2023/07/12 03:51:08;;;;;;;6.55;3.58;;;20.40;25.00;;;;;;7389734;19;20018;-71
2023/07/12 03:53:41;;;;;;;6.78;2.92;;;20.50;22.20;;;;;;7390664;19;20051;-68
2023/07/12 03:56:12;;;;;;;8.32;3.15;;;20.50;20.50;;;;;;7390922;19;20042;-68
2023/07/12 03:58:42;;;;;;;10.05;3.45;;;20.60;16.70;;;;;;7389353;19;20014;-69
2023/07/12 04:01:13;;;;;;;6.28;3.15;;;20.70;17.00;;;;;;7389495;19;20323;-69
2023/07/12 04:03:44;;;;;;;5.63;3.05;;;20.70;18.10;;;;;;7390392;19;20014;-69
2023/07/12 04:06:14;;;;;;;10.23;2.88;;;20.80;14.60;;;;;;7393785;19;20340;-69
2023/07/12 04:08:46;;;;;;;6.35;3.15;;;20.80;14.10;;;;;;7390543;19;20027;-69
2023/07/12 04:11:26;;;;;;;5.55;3.20;;;20.90;11.60;;;;;;7389298;19;20035;-69
2023/07/12 04:13:59;;;;;;;5.03;3.40;;;20.90;15.10;;;;;;7389867;19;20035;-69
2023/07/12 04:16:30;;;;;;;7.50;3.30;;;20.80;15.90;;;;;;7390570;19;20014;-69
2023/07/12 04:19:01;;;;;;;6.45;3.20;;;21.00;15.20;;;;;;7389384;19;20471;-70
2023/07/12 04:21:30;;;;;;;7.53;3.25;;;21.40;8.30;;;;;;7388917;19;20102;-68
2023/07/12 04:24:04;;;;;;;7.95;3.13;;;21.70;2.30;;;;;;7389503;19;20455;-68
2023/07/12 04:26:34;;;;;;;8.30;3.30;;;21.70;1.00;;;;;;7390104;19;20031;-68
2023/07/12 04:29:05;;;;;;;7.43;3.10;;;21.40;4.50;;;;;;7389732;19;20263;-68
2023/07/12 04:31:35;;;;;;;7.38;2.90;;;21.40;5.40;;;;;;7388174;19;20014;-69
2023/07/12 04:34:05;;;;;;;8.10;3.40;;;21.30;6.60;;;;;;7389811;19;20022;-69
2023/07/12 04:36:35;;;;;;;9.63;3.17;;;21.40;6.70;;;;;;7389791;19;20015;-68
2023/07/12 04:39:08;;;;;;;6.10;3.38;;;21.40;4.70;;;;;;7388666;19;20022;-69
2023/07/12 04:41:38;;;;;;;9.00;3.60;;;22.10;1.00;;;;;;7388132;19;20014;-69
2023/07/12 04:44:08;;;;;;;7.85;3.25;;;22.90;1.00;;;;;;7389210;19;20404;-69
2023/07/12 04:46:38;;;;;;;5.55;3.00;;;24.00;1.00;;;;;;7392496;19;20487;-69
2023/07/12 04:49:08;;;;;;;7.97;3.08;;;23.10;1.00;;;;;;7389248;19;20039;-69
2023/07/12 04:51:38;;;;;;;8.90;3.45;;;22.90;1.00;;;;;;7387508;19;20099;-68
2023/07/12 04:54:11;;;;;;;6.45;3.50;;;22.80;1.00;;;;;;7386507;19;20368;-69
2023/07/12 04:56:40;;;;;;;8.55;3.30;;;22.90;1.00;;;;;;7388941;19;20466;-69
2023/07/12 04:59:10;;;;;;;8.15;3.60;;;23.10;1.00;;;;;;7387675;19;20014;-69
2023/07/12 05:01:40;;;;;;;9.40;3.55;;;24.50;1.00;;;;;;7386881;19;20032;-69
2023/07/12 05:04:11;;;;;;;6.10;3.17;;;23.80;1.00;;;;;;7388954;19;20038;-69
2023/07/12 05:06:41;;;;;;;5.05;3.60;;;23.30;1.00;;;;;;7388662;19;20495;-70
2023/07/12 05:09:13;;;;;;;7.88;3.28;;;22.90;1.00;;;;;;7390787;19;20020;-70
2023/07/12 05:11:43;;;;;;;9.90;4.07;;;22.70;1.00;;;;;;7395920;19;20015;-70
2023/07/12 05:14:13;;;;;;;7.82;3.65;;;22.60;1.00;;;;;;7395743;19;20014;-69
2023/07/12 05:16:43;;;;;;;9.55;3.58;;;22.60;1.00;;;;;;7395994;19;20026;-69
2023/07/12 05:19:13;;;;;;;9.93;3.97;;;22.70;1.00;;;;;;7395066;19;20082;-69
2023/07/12 05:21:43;;;;;;;8.48;3.90;;;22.60;1.00;;;;;;7395770;19;20015;-70
2023/07/12 05:24:15;;;;;;;4.78;3.30;;;22.60;1.00;;;;;;7396018;19;20019;-68
2023/07/12 05:26:45;;;;;;;9.70;3.67;;;22.80;1.00;;;;;;7395481;19;20025;-69
2023/07/12 05:29:15;;;;;;;7.57;3.78;;;22.70;1.00;;;;;;7395165;19;20022;-69
2023/07/12 05:31:45;;;;;;;8.30;3.85;;;22.80;1.00;;;;;;7397334;19;20011;-69
2023/07/12 05:34:15;;;;;;;7.63;3.72;;;23.00;1.00;;;;;;7394508;19;20352;-69
2023/07/12 05:36:46;;;;;;;9.20;3.80;;;23.00;1.00;;;;;;7394681;19;20025;-69
2023/07/12 05:39:18;;;;;;;9.77;4.30;;;23.00;1.00;;;;;;7394963;19;20086;-69
2023/07/12 05:41:48;;;;;;;6.05;3.88;;;22.90;1.00;;;;;;7394626;19;20010;-69
2023/07/12 05:44:18;;;;;;;6.25;3.45;;;22.70;1.00;;;;;;7395179;19;20014;-69
2023/07/12 05:46:48;;;;;;;6.50;3.92;;;22.70;1.00;;;;;;7398012;19;20742;-70
2023/07/12 05:49:18;;;;;;;5.68;3.38;;;22.80;1.00;;;;;;7394381;19;20010;-69
2023/07/12 05:51:49;;;;;;;8.77;4.03;;;23.00;1.00;;;;;;7394508;19;20098;-68
2023/07/12 05:54:21;;;;;;;6.35;4.07;;;22.80;1.00;;;;;;7395046;19;20094;-68
2023/07/12 05:56:51;;;;;;;5.82;3.80;;;22.80;1.00;;;;;;7393905;19;20014;-69
2023/07/12 05:59:22;;;;;;;7.75;3.90;;;22.90;1.00;;;;;;7393231;19;20011;-68
2023/07/12 06:01:52;;;;;;;8.15;4.07;;;23.00;1.00;;;;;;7394467;19;20055;-70
2023/07/12 06:04:22;;;;;;;7.38;4.18;;;22.80;1.00;;;;;;7394959;19;20118;-69
2023/07/12 06:06:53;;;;;;;10.18;4.38;;;22.90;1.00;;;;;;7394799;19;20349;-70
2023/07/12 06:09:25;;;;;;;7.63;4.05;;;23.10;1.00;;;;;;7393608;19;20379;-69
2023/07/12 06:11:55;;;;;;;11.02;4.10;;;23.20;1.00;;;;;;7393680;19;20548;-69
2023/07/12 06:14:25;;;;;;;10.40;4.50;;;23.40;1.00;;;;;;7393057;19;20023;-69
2023/07/12 06:16:55;;;;;;;10.63;4.70;;;23.80;1.00;;;;;;7393192;19;20022;-69
2023/07/12 06:19:25;;;;;;;7.90;4.20;;;23.80;1.00;;;;;;7392089;19;20028;-69
2023/07/12 06:21:55;;;;;;;11.60;4.07;;;23.70;1.00;;;;;;7393458;19;20022;-69
2023/07/12 06:24:28;;;;;;;10.70;4.25;;;23.80;1.00;;;;;;7393705;19;20494;-69
2023/07/12 06:26:57;;;;;;;8.98;4.07;;;23.70;1.00;;;;;;7393027;19;20360;-70
2023/07/12 06:29:27;;;;;;;7.65;4.00;;;23.60;1.00;;;;;;7392988;19;20018;-70
2023/07/12 06:31:57;;;;;;;6.82;4.18;;;23.70;1.00;;;;;;7393671;19;20494;-70
2023/07/12 06:34:27;;;;;;;9.43;4.43;;;23.80;1.00;;;;;;7393992;19;20014;-67
2023/07/12 06:36:57;;;;;;;7.68;3.83;;;23.70;1.00;;;;;;7394940;19;20043;-70
2023/07/12 06:39:30;;;;;;;7.07;4.40;;;23.80;1.00;;;;;;7393688;19;20025;-70
2023/07/12 06:42:00;;;;;;;9.43;4.10;;;23.80;1.00;;;;;;7392924;19;20098;-70
2023/07/12 06:44:30;;;;;;;5.72;3.80;;;23.80;1.00;;;;;;7395638;19;20038;-70
2023/07/12 06:47:00;;;;;;;6.70;4.05;;;24.20;1.00;;;;;;7426595;19;20042;-68
2023/07/12 06:49:30;;;;;;;8.27;3.80;;;24.60;1.00;;;;;;7416466;19;20007;-69
2023/07/12 06:52:00;;;;;;;7.97;4.43;;;24.70;1.00;;;;;;7408327;19;20063;-68
2023/07/12 06:54:32;;;;;;;8.52;3.90;;;24.60;1.00;;;;;;7398288;19;20085;-69
2023/07/12 06:57:02;;;;;;;8.50;3.90;;;24.50;1.00;;;;;;7394527;19;20018;-69
2023/07/12 06:59:33;;;;;;;5.45;3.60;;;24.70;1.00;;;;;;7392684;19;20078;-70
2023/07/12 07:02:03;;;;;;;6.70;4.15;;;24.80;1.00;;;;;;7390206;19;20031;-70
2023/07/12 07:04:33;;;;;;;7.45;3.70;;;25.20;1.00;;;;;;7393293;19;20026;-71
2023/07/12 07:07:03;;;;;;;8.98;4.35;;;25.30;1.00;;;;;;7393171;19;20014;-68
2023/07/12 07:09:38;;;;;;;9.77;3.80;;;25.00;1.00;;;;;;7391702;19;20415;-69
2023/07/12 07:12:09;;;;;;;6.43;4.43;;;25.10;1.00;;;;;;7392346;19;20023;-69
2023/07/12 07:14:39;;;;;;;11.10;4.80;;;25.00;1.00;;;;;;7393175;19;20081;-68
2023/07/12 07:17:10;;;;;;;8.18;3.92;;;25.10;1.00;;;;;;7393605;19;20018;-69
2023/07/12 07:19:40;;;;;;;7.22;3.97;;;24.80;1.00;;;;;;7390731;19;20015;-70
2023/07/12 07:22:10;;;;;;;7.45;3.67;;;25.00;1.00;;;;;;7389426;19;20014;-69
2023/07/12 07:24:43;;;;;;;7.13;3.75;;;25.30;1.00;;;;;;7390979;19;20372;-69
2023/07/12 07:27:13;;;;;;;7.28;3.65;;;25.60;1.00;;;;;;7391025;19;20022;-69
2023/07/12 07:29:43;;;;;;;5.18;3.25;;;26.10;1.00;;;;;;7390759;19;20096;-70
2023/07/12 07:32:13;;;;;;;6.97;3.63;;;26.00;1.00;;;;;;7389291;19;20014;-68
2023/07/12 07:34:43;;;;;;;4.93;2.75;;;25.90;1.00;;;;;;7390153;19;20028;-69
2023/07/12 07:37:17;;;;;;;4.90;3.10;;;26.20;1.00;;;;;;7391693;19;20097;-69
2023/07/12 07:39:49;;;;;;;7.75;3.72;;;26.00;1.00;;;;;;7390113;19;20022;-70
2023/07/12 07:42:19;;;;;;;9.30;4.10;;;26.00;1.00;;;;;;7389563;19;20018;-70
2023/07/12 07:44:49;;;;;;;8.52;3.80;;;26.00;1.00;;;;;;7390772;19;20519;-69
2023/07/12 07:47:20;;;;;;;5.35;3.25;;;26.10;1.00;;;;;;7395803;19;20023;-70
2023/07/12 07:49:50;;;;;;;7.30;2.80;;;26.40;1.00;;;;;;7389452;19;20019;-69
2023/07/12 07:52:20;;;;;;;7.72;3.70;;;26.60;1.00;;;;;;7390785;19;20043;-70
2023/07/12 07:54:53;;;;;;;7.90;3.10;;;26.70;1.00;;;;;;7390429;19;20081;-70
2023/07/12 07:57:23;;;;;;;5.15;3.50;;;27.10;1.00;;;;;;7390451;19;20017;-71
2023/07/12 07:59:53;;;;;;;5.40;3.00;;;26.80;1.00;;;;;;7389434;19;20020;-70
2023/07/12 08:02:22;;;;;;;4.70;2.85;;;27.10;1.00;;;;;;7388664;19;20100;-69
2023/07/12 08:05:07;;;;;;;5.53;3.00;;;26.80;1.00;;;;;;7392260;19;20111;-69
2023/07/12 08:07:41;;;;;;;4.25;2.97;;;26.30;1.00;;;;;;7390397;19;20018;-70
2023/07/12 08:10:17;;;;;;;5.50;3.00;;;27.00;1.00;;;;;;7389983;19;20041;-69
2023/07/12 08:12:46;;;;;;;5.43;3.00;;;27.30;1.00;;;;;;7392251;19;20018;-69
2023/07/12 08:15:20;;;;;;;5.25;2.55;;;26.90;1.00;;;;;;7390168;19;20006;-70
2023/07/12 08:17:50;;;;;;;4.78;3.05;;;27.00;1.00;;;;;;7390271;19;20043;-70
2023/07/12 08:20:21;;;;;;;4.65;2.60;;;26.80;1.00;;;;;;7388666;19;20501;-70
2023/07/12 08:22:51;;;;;;;6.82;2.42;;;27.00;1.00;;;;;;7387768;19;20082;-70
2023/07/12 08:25:23;;;;;;;17.38;14.23;;;26.60;1.00;;;;;;7390168;19;20018;-69
2023/07/12 08:27:53;;;;;;;4.57;2.33;;;26.80;1.00;;;;;;7389662;19;20026;-70
2023/07/12 08:30:23;;;;;;;9.27;2.40;;;26.60;1.00;;;;;;7388427;19;20035;-70
2023/07/12 08:32:54;;;;;;;7.13;3.00;;;26.70;1.00;;;;;;7388129;19;20054;-70
2023/07/12 08:35:24;;;;;;;3.45;2.42;;;27.40;1.00;;;;;;7389252;19;20027;-70
2023/07/12 08:38:15;;;;;;;3.60;2.22;;;27.00;1.00;;;;;;7388985;19;20032;-70
2023/07/12 08:40:50;;;;;;;6.95;2.17;;;27.00;1.00;;;;;;7388346;19;20014;-69
2023/07/12 08:43:21;;;;;;;4.03;2.20;;;27.10;1.00;;;;;;7390119;19;20019;-69
2023/07/12 08:45:56;;;;;;;5.30;2.10;;;27.70;1.00;;;;;;7391762;19;20471;-69
2023/07/12 08:48:27;;;;;;;3.53;2.30;;;26.60;1.00;;;;;;7388969;19;20010;-69
2023/07/12 08:50:57;;;;;;;16.23;2.38;;;27.30;1.00;;;;;;7388061;19;20033;-70
2023/07/12 08:53:30;;;;;;;3.13;2.35;;;26.60;1.00;;;;;;7387749;19;20018;-70
2023/07/12 08:56:03;;;;;;;6.38;2.33;;;26.80;1.00;;;;;;7389665;19;20014;-70
2023/07/12 08:58:37;;;;;;;6.53;2.42;;;26.90;1.00;;;;;;7388694;19;20508;-69
2023/07/12 09:01:12;;;;;;;3.75;2.20;;;26.60;1.00;;;;;;7388254;19;20420;-69
2023/07/12 09:03:43;;;;;;;4.63;2.25;;;26.50;1.00;;;;;;7388157;19;20021;-69
2023/07/12 09:06:14;;;;;;;4.30;2.28;;;27.30;1.00;;;;;;7392185;19;20019;-70
2023/07/12 09:08:49;;;;;;;3.97;1.85;;;27.50;1.00;;;;;;7388205;19;20014;-69
2023/07/12 09:11:29;;;;;;;3.25;2.10;;;27.00;1.00;;;;;;7386767;19;20018;-70
2023/07/12 09:14:00;;;;;;;3.95;2.10;;;27.40;1.00;;;;;;7387492;19;20014;-70
2023/07/12 09:16:33;;;;;;;3.92;1.85;;;27.00;1.00;;;;;;7389207;19;20022;-69
2023/07/12 09:19:16;;;;;;;4.95;2.20;;;26.60;1.00;;;;;;7387842;19;20015;-70
2023/07/12 09:21:50;;;;;;;5.35;2.22;;;26.60;1.00;;;;;;7387482;19;20053;-69
2023/07/12 09:24:25;;;;;;;7.65;2.60;;;26.50;1.00;;;;;;7387089;19;20015;-69
2023/07/12 09:27:05;;;;;;;2.70;2.05;;;25.70;1.00;;;;;;7388724;19;20018;-69
2023/07/12 09:29:35;;;;;;;8.77;2.50;;;25.90;1.00;;;;;;7387141;19;20360;-70
2023/07/12 09:32:18;;;;;;;6.13;2.35;;;26.20;1.00;;;;;;7386775;19;20534;-70
2023/07/12 09:34:49;;;;;;;3.90;2.25;;;26.30;1.00;;;;;;7387201;19;20344;-70
2023/07/12 09:37:22;;;;;;;4.18;2.35;;;26.60;1.00;;;;;;7387798;19;20017;-69
2023/07/12 09:40:00;;;;;;;6.47;2.03;;;26.50;1.00;;;;;;7386898;19;20509;-69
2023/07/12 09:42:33;;;;;;;4.95;2.03;;;26.90;1.00;;;;;;7385218;19;20125;-69
2023/07/12 09:45:04;;;;;;;3.25;1.70;;;27.20;1.00;;;;;;7385522;19;20356;-69
2023/07/12 09:47:43;;;;;;;2.72;1.88;;;27.30;1.00;;;;;;7387923;19;20016;-70
2023/07/12 09:50:21;;;;;;;5.63;2.08;;;27.60;1.00;;;;;;7385950;19;20015;-70
2023/07/12 09:53:00;;;;;;;9.60;4.97;;;28.30;1.00;;;;;;7387376;19;20297;-70
2023/07/12 09:55:37;;;;;;;4.20;2.08;;;28.40;1.00;;;;;;7389819;19;20014;-70
2023/07/12 09:58:26;;;;;;;4.53;2.05;;;28.10;1.00;;;;;;7394650;19;20491;-69
2023/07/12 10:01:04;;;;;;;5.38;2.40;;;27.30;1.00;;;;;;7392555;19;20038;-68
2023/07/12 10:03:38;;;;;;;2.78;1.80;;;26.70;1.00;;;;;;7391585;19;20011;-69
2023/07/12 10:06:17;;;;;;;2.75;1.90;;;27.60;1.00;;;;;;7398934;19;20475;-70
2023/07/12 10:08:52;;;;;;;3.33;2.03;;;27.30;1.00;;;;;;7394633;19;20006;-69
2023/07/12 10:11:30;;;;;;;5.15;2.30;;;27.60;1.00;;;;;;7392168;19;20023;-69
2023/07/12 10:14:07;;;;;;;7.05;2.28;;;27.30;1.00;;;;;;7392411;19;20014;-69
2023/07/12 10:16:45;;;;;;;2.60;1.98;;;27.30;1.00;;;;;;7394271;19;20038;-69
2023/07/12 10:19:21;;;;;;;2.60;2.20;;;27.40;1.00;;;;;;7393914;19;20010;-69
2023/07/12 10:21:53;;;;;;;6.40;2.20;;;27.20;1.00;;;;;;7408582;19;20015;-70
2023/07/12 10:24:28;;;;;;;3.78;2.33;;;27.20;1.00;;;;;;7410530;19;20018;-70
2023/07/12 10:27:01;;;;;;;3.35;2.30;;;27.20;1.00;;;;;;7404690;19;20027;-67
2023/07/12 10:29:44;;;;;;;3.22;2.50;;;27.30;1.00;;;;;;7397788;19;20011;-69
2023/07/12 10:32:22;;;;;;;4.85;2.10;;;27.50;1.00;;;;;;7394616;19;20011;-70
2023/07/12 10:35:05;;;;;;;3.38;1.98;;;27.50;1.00;;;;;;7392271;19;20018;-70
2023/07/12 10:37:47;;;;;;;6.78;2.60;;;28.60;1.00;;;;;;7393736;19;20352;-69
2023/07/12 10:40:22;;;;;;;4.43;2.60;;;28.50;1.00;;;;;;7391815;19;20078;-69
2023/07/12 10:42:56;;;;;;;7.28;2.78;;;28.90;1.00;;;;;;7391467;19;20015;-71
2023/07/12 10:45:33;;;;;;;7.13;2.38;;;29.30;1.00;;;;;;7393346;19;20134;-69
2023/07/12 10:48:04;;;;;;;3.85;2.40;;;28.30;1.00;;;;;;7392750;19;20014;-69
2023/07/12 10:50:38;;;;;;;4.20;2.50;;;28.00;1.00;;;;;;7390642;19;20052;-69
2023/07/12 10:53:14;;;;;;;;;;;28.70;1.00;;;;;;7392445;19;20035;-69
2023/07/12 10:56:17;;;;;;;4.22;2.63;;;28.60;1.00;;;;;;7392036;19;19922;-69
2023/07/12 10:58:51;;;;;;;3.25;2.17;;;28.80;1.00;;;;;;7392003;19;20018;-69
2023/07/12 11:01:53;;;;;;;4.90;1.90;;;27.30;1.00;;;;;;7389360;19;20019;-69
2023/07/12 11:04:37;;;;;;;3.13;2.13;;;27.20;1.00;;;;;;7389565;19;20010;-69
2023/07/12 11:07:36;;;;;;;2.88;2.35;;;27.10;1.00;;;;;;7389340;19;20014;-69
2023/07/12 11:10:27;;;;;;;6.00;2.67;;;27.50;1.00;;;;;;7391006;19;20014;-69
2023/07/12 11:13:20;;;;;;;3.58;2.05;;;27.70;1.00;;;;;;7390420;19;20031;-70
2023/07/12 11:16:00;;;;;;;5.68;2.50;;;27.50;1.00;;;;;;7390907;19;20388;-69
2023/07/12 11:18:37;;;;;;;6.22;2.53;;;28.40;1.00;;;;;;7391594;19;20039;-69
2023/07/12 11:21:28;;;;;;;5.50;2.90;;;28.50;1.00;;;;;;7389745;19;20025;-70
2023/07/12 11:23:59;;;;;;;8.10;2.28;;;28.70;1.00;;;;;;7389617;19;20014;-70
2023/07/12 11:26:32;;;;;;;2.97;2.30;;;28.50;1.00;;;;;;7391704;19;20018;-70
2023/07/12 11:29:18;;;;;;;4.30;2.60;;;28.30;1.00;;;;;;7390747;19;20116;-69
2023/07/12 11:32:07;;;;;;;9.32;2.92;;;28.60;1.00;;;;;;7389712;19;20018;-69
2023/07/12 11:34:41;;;;;;;4.50;2.88;;;27.90;1.00;;;;;;7390540;19;20018;-69
2023/07/12 11:37:19;;;;;;;3.05;2.45;;;28.40;1.00;;;;;;7390725;19;20021;-70
2023/07/12 11:39:50;;;;;;;4.35;2.40;;;28.10;1.00;;;;;;7390321;19;20022;-70
2023/07/12 11:42:27;;;;;;;3.80;2.55;;;28.50;1.00;;;;;;7390899;19;20491;-69
2023/07/12 11:45:04;;;;;;;3.67;2.50;;;28.50;1.00;;;;;;7390473;19;20018;-70
2023/07/12 11:47:37;;;;;;;3.80;2.40;;;27.60;1.00;;;;;;7390013;19;20073;-70
2023/07/12 11:50:10;;;;;;;4.10;2.70;;;28.30;1.00;;;;;;7387641;19;20042;-69
2023/07/12 11:52:42;;;;;;;6.57;2.83;;;28.20;1.00;;;;;;7388929;19;20018;-70
2023/07/12 11:55:17;;;;;;;5.50;2.92;;;28.20;1.00;;;;;;7389524;19;20014;-69
2023/07/12 11:57:48;;;;;;;4.05;2.50;;;27.90;1.00;;;;;;7390073;19;20431;-70
2023/07/12 12:00:21;;;;;;;3.83;2.78;;;27.80;1.00;;;;;;7389081;19;20117;-70
2023/07/12 12:02:52;;;;;;;5.63;3.03;;;28.40;1.00;;;;;;7389059;19;20019;-70
2023/07/12 12:05:25;;;;;;;3.90;2.92;;;28.40;1.00;;;;;;7392565;19;20021;-68
2023/07/12 12:08:00;;;;;;;5.88;2.78;;;29.00;1.00;;;;;;7389527;19;20097;-70
2023/07/12 12:10:34;;;;;;;5.97;2.65;;;28.30;1.00;;;;;;7388394;19;20089;-69
2023/07/12 12:13:17;;;;;;;8.50;2.97;;;28.60;1.00;;;;;;7389908;19;20018;-70
2023/07/12 12:15:51;;;;;;;6.65;2.95;;;28.00;1.00;;;;;;7390033;19;20021;-70
2023/07/12 12:18:24;;;;;;;5.07;3.13;;;28.10;1.00;;;;;;7389271;19;20042;-69
2023/07/12 12:20:58;;;;;;;6.93;2.92;;;27.30;1.00;;;;;;7388290;19;20015;-69
2023/07/12 12:23:36;;;;;;;6.65;2.58;;;27.70;1.00;;;;;;7388682;19;20019;-70
2023/07/12 12:26:14;;;;;;;4.88;3.25;;;27.80;1.00;;;;;;7389281;19;20061;-69
2023/07/12 12:28:51;;;;;;;8.80;3.58;;;27.20;1.00;;;;;;7389201;19;20038;-68
2023/07/12 12:31:24;;;;;;;5.85;3.00;;;27.80;1.00;;;;;;7387568;19;20030;-69
2023/07/12 12:34:04;;;;;;;5.68;3.00;;;28.20;1.00;;;;;;7388951;19;20010;-70
2023/07/12 12:36:36;;;;;;;6.82;2.92;;;28.20;1.00;;;;;;7389438;19;20014;-69
2023/07/12 12:39:22;;;;;;;6.38;3.42;;;28.70;1.00;;;;;;7388735;19;20021;-69
2023/07/12 12:41:55;;;;;;;9.45;2.70;;;28.90;1.00;;;;;;7388329;19;20042;-69
2023/07/12 12:44:30;;;;;;;5.50;2.90;;;28.70;1.00;;;;;;7387960;19;20037;-69
2023/07/12 12:47:02;;;;;;;5.85;3.05;;;28.30;1.00;;;;;;7392721;19;20103;-69
2023/07/12 12:49:49;;;;;;;5.07;2.67;;;27.90;1.00;;;;;;7388246;19;20018;-68
2023/07/12 12:52:40;;;;;;;7.22;2.85;;;28.10;1.00;;;;;;7388207;19;20018;-69
2023/07/12 12:55:15;;;;;;;4.53;2.75;;;29.20;1.00;;;;;;7388027;19;20014;-70
2023/07/12 12:58:05;;;;;;;3.90;3.00;;;28.70;1.00;;;;;;7388468;19;20029;-68
2023/07/12 13:00:48;;;;;;;6.22;3.33;;;28.40;1.00;;;;;;7387087;19;20532;-69
2023/07/12 13:03:21;;;;;;;6.45;2.97;;;28.40;1.00;;;;;;7387824;19;20019;-69
2023/07/12 13:05:55;;;;;;;6.13;2.83;;;28.90;1.00;;;;;;7391640;19;20026;-70
2023/07/12 13:08:25;;;;;;;5.00;3.08;;;28.60;1.00;;;;;;7387632;19;20011;-70
2023/07/12 13:11:17;;;;;;;5.60;2.90;;;28.70;1.00;;;;;;7386333;19;20021;-70
2023/07/12 13:13:51;;;;;;;4.90;3.25;;;28.80;1.00;;;;;;7387064;19;20474;-69
2023/07/12 13:16:25;;;;;;;4.38;3.13;;;28.30;1.00;;;;;;7387786;19;20240;-69
2023/07/12 13:18:57;;;;;;;8.75;2.95;;;28.20;1.00;;;;;;7387890;19;20019;-69
2023/07/12 13:21:48;;;;;;;4.65;3.10;;;28.50;1.00;;;;;;7387712;19;20043;-69
2023/07/12 13:24:19;;;;;;;5.82;2.58;;;28.50;1.00;;;;;;7386567;19;20035;-70